createdAt,value
2019-04-27T00:02:44.185Z,5.71
2019-04-27T00:07:56.268Z,9.65
2019-04-27T00:13:04.121Z,7.86
2019-04-27T00:18:13.985Z,6.13
2019-04-27T00:23:18.267Z,7.06
2019-04-27T00:28:27.164Z,6.70
2019-04-27T00:33:35.985Z,7.70
2019-04-27T00:38:44.916Z,7.85
2019-04-27T00:43:53.772Z,8.01
2019-04-27T00:49:03.710Z,8.30
2019-04-27T00:54:11.172Z,8.91
2019-04-27T00:59:20.099Z,7.49
2019-04-27T01:04:28.948Z,6.91
2019-04-27T01:09:37.788Z,7.16
2019-04-27T01:14:46.627Z,8.86
2019-04-27T01:19:55.613Z,8.77
2019-04-27T01:25:04.457Z,11.41
2019-04-27T01:30:13.367Z,12.33
2019-04-27T01:35:22.235Z,9.21
2019-04-27T01:40:31.142Z,10.92
2019-04-27T01:45:39.979Z,8.64
2019-04-27T01:50:49.280Z,9.02
2019-04-27T01:55:59.059Z,11.35
2019-04-27T02:01:05.631Z,10.79
2019-04-27T02:06:14.551Z,9.57
2019-04-27T02:11:23.443Z,10.42
2019-04-27T02:16:32.296Z,11.21
2019-04-27T02:21:41.150Z,12.43
2019-04-27T02:26:50.030Z,10.34
2019-04-27T02:37:05.292Z,12.19
2019-04-27T02:42:14.160Z,9.68
2019-04-27T02:47:23.048Z,9.57
2019-04-27T02:52:31.895Z,10.28
2019-04-27T02:57:40.803Z,11.95
2019-04-27T03:02:51.037Z,11.99
2019-04-27T03:07:59.764Z,10.12
2019-04-27T03:13:06.580Z,9.41
2019-04-27T03:18:15.551Z,9.95
2019-04-27T03:23:24.424Z,11.43
2019-04-27T03:28:33.297Z,14.82
2019-04-27T03:33:43.208Z,13.25
2019-04-27T03:38:50.555Z,10.93
2019-04-27T03:43:59.645Z,14.18
2019-04-27T03:49:09.763Z,17.97
2019-04-27T03:54:19.342Z,13.26
2019-04-27T03:59:25.076Z,13.48
2019-04-27T04:04:33.952Z,12.65
2019-04-27T04:09:42.811Z,9.47
2019-04-27T04:14:51.742Z,12.19
2019-04-27T04:20:01.544Z,12.17
2019-04-27T04:25:10.746Z,10.92
2019-04-27T04:30:19.798Z,11.35
2019-04-27T04:35:25.779Z,10.28
2019-04-27T04:40:34.707Z,10.66
2019-04-27T04:45:43.595Z,10.28
2019-04-27T04:50:52.491Z,11.85
2019-04-27T04:56:01.403Z,10.30
2019-04-27T05:01:10.270Z,18.34
2019-04-27T05:06:19.247Z,17.82
2019-04-27T05:11:29.609Z,13.36
2019-04-27T05:16:36.521Z,13.85
2019-04-27T05:21:45.413Z,17.17
2019-04-27T05:26:54.283Z,14.79
2019-04-27T05:32:03.140Z,17.16
2019-04-27T05:37:11.995Z,22.05
2019-04-27T05:42:20.864Z,15.40
2019-04-27T05:47:29.723Z,24.39
2019-04-27T05:52:38.632Z,19.00
2019-04-27T05:57:46.968Z,22.77
2019-04-27T06:02:55.363Z,20.94
2019-04-27T06:08:04.235Z,15.11
2019-04-27T06:13:13.113Z,15.41
2019-04-27T06:18:21.973Z,11.94
2019-04-27T06:23:30.832Z,13.09
2019-04-27T06:28:39.890Z,9.93
2019-04-27T06:33:49.734Z,8.92
2019-04-27T06:38:58.789Z,10.33
2019-04-27T06:44:05.359Z,11.44
2019-04-27T06:49:14.227Z,8.91
2019-04-27T06:54:23.076Z,8.72
2019-04-27T06:59:31.979Z,15.49
2019-04-27T07:04:40.894Z,14.38
2019-04-27T07:09:49.737Z,13.41
2019-04-27T07:14:59.234Z,10.39
2019-04-27T07:20:08.546Z,13.46
2019-04-27T07:25:15.343Z,32.68
2019-04-27T07:30:24.199Z,31.25
2019-04-27T07:35:33.047Z,25.61
2019-04-27T07:40:42.166Z,20.22
2019-04-27T07:45:51.010Z,19.91
2019-04-27T07:50:59.841Z,21.61
2019-04-27T07:56:09.349Z,14.34
2019-04-27T08:01:17.112Z,24.27
2019-04-27T08:06:26.007Z,16.89
2019-04-27T08:11:34.864Z,19.69
2019-04-27T08:16:43.749Z,19.04
2019-04-27T08:21:52.624Z,15.62
2019-04-27T08:27:01.572Z,20.60
2019-04-27T08:32:10.420Z,17.31
2019-04-27T08:37:19.297Z,14.11
2019-04-27T08:42:29.375Z,17.40
2019-04-27T08:47:36.583Z,13.78
2019-04-27T08:52:45.452Z,16.39
2019-04-27T08:57:54.401Z,18.97
2019-04-27T09:03:03.283Z,20.51
2019-04-27T09:08:12.189Z,18.53
2019-04-27T09:13:21.072Z,19.75
2019-04-27T09:18:32.376Z,20.37
2019-04-27T09:23:38.910Z,17.10
2019-04-27T09:28:46.796Z,17.15
2019-04-27T09:33:55.671Z,17.55
2019-04-27T09:39:06.269Z,15.50
2019-04-27T09:44:12.994Z,17.62
2019-04-27T09:49:21.820Z,17.59
2019-04-27T09:54:30.682Z,15.15
2019-04-27T09:59:39.692Z,11.94
2019-04-27T10:04:47.869Z,12.56
2019-04-27T10:09:56.723Z,12.80
2019-04-27T10:15:06.142Z,14.31
2019-04-27T10:20:13.984Z,16.45
2019-04-27T10:25:22.824Z,13.39
2019-04-27T10:30:31.736Z,13.88
2019-04-27T10:35:40.574Z,9.68
2019-04-27T10:40:49.432Z,11.77
2019-04-27T10:45:58.325Z,10.04
2019-04-27T10:51:07.428Z,11.35
2019-04-27T10:56:16.088Z,9.31
2019-04-27T11:01:25.778Z,10.83
2019-04-27T11:06:33.315Z,14.36
2019-04-27T11:11:42.175Z,14.36
2019-04-27T11:16:51.013Z,12.22
2019-04-27T11:21:59.895Z,12.79
2019-04-27T11:27:08.759Z,12.21
2019-04-27T11:32:17.621Z,13.48
2019-04-27T11:37:26.472Z,15.39
2019-04-27T11:42:35.543Z,14.85
2019-04-27T11:47:44.466Z,15.94
2019-04-27T11:52:53.327Z,17.14
2019-04-27T11:58:02.211Z,17.46
2019-04-27T12:03:11.071Z,19.10
2019-04-27T12:08:19.892Z,16.45
2019-04-27T12:13:28.780Z,17.96
2019-04-27T12:18:37.639Z,15.21
2019-04-27T12:23:47.222Z,12.43
2019-04-27T12:28:56.093Z,14.25
2019-04-27T12:34:03.387Z,14.01
2019-04-27T12:39:12.210Z,16.84
2019-04-27T12:44:21.055Z,49.55
2019-04-27T12:49:29.945Z,38.50
2019-04-27T12:54:38.781Z,33.90
2019-04-27T12:59:47.695Z,31.81
2019-04-27T13:04:56.833Z,28.66
2019-04-27T13:10:05.761Z,27.74
2019-04-27T13:15:14.292Z,28.22
2019-04-27T13:20:23.212Z,24.70
2019-04-27T13:25:32.079Z,23.37
2019-04-27T13:30:40.953Z,19.43
2019-04-27T13:35:49.863Z,41.36
2019-04-27T13:40:58.659Z,29.33
2019-04-27T13:46:08.162Z,34.11
2019-04-27T13:51:16.630Z,19.96
2019-04-27T13:56:24.315Z,26.05
2019-04-27T14:01:33.173Z,20.52
2019-04-27T14:06:42.187Z,22.26
2019-04-27T14:11:50.987Z,17.34
2019-04-27T14:16:59.912Z,18.33
2019-04-27T14:22:09.188Z,20.92
2019-04-27T14:27:17.187Z,25.09
2019-04-27T14:32:26.057Z,16.73
2019-04-27T14:37:34.924Z,15.66
2019-04-27T14:42:43.784Z,14.07
2019-04-27T14:47:52.697Z,16.21
2019-04-27T14:53:01.546Z,14.11
2019-04-27T14:58:10.416Z,15.07
2019-04-27T15:03:19.255Z,13.34
2019-04-27T15:08:28.133Z,12.46
2019-04-27T15:13:37.858Z,16.08
2019-04-27T15:18:45.440Z,14.46
2019-04-27T15:23:54.345Z,13.57
2019-04-27T15:29:03.231Z,14.29
2019-04-27T15:34:12.113Z,10.70
2019-04-27T15:39:22.576Z,12.91
2019-04-27T15:44:29.346Z,11.03
2019-04-27T15:49:38.734Z,10.27
2019-04-27T15:54:48.112Z,14.92
2019-04-27T15:59:54.955Z,9.22
2019-04-27T16:05:03.816Z,12.62
2019-04-27T16:10:12.697Z,9.52
2019-04-27T16:15:21.609Z,11.68
2019-04-27T16:20:33.910Z,12.26
2019-04-27T16:30:50.635Z,14.49
2019-04-27T16:36:00.560Z,16.42
2019-04-27T16:41:04.125Z,16.19
2019-04-27T16:46:13.028Z,15.33
2019-04-27T16:51:21.888Z,12.06
2019-04-27T16:56:30.787Z,14.42
2019-04-27T17:01:46.145Z,19.10
2019-04-27T17:06:49.503Z,15.88
2019-04-27T17:11:56.747Z,24.63
2019-04-27T17:17:08.744Z,20.14
2019-04-27T17:22:14.709Z,21.91
2019-04-27T17:27:28.774Z,30.54
2019-04-27T17:32:33.568Z,23.63
2019-04-27T17:37:38.436Z,19.32
2019-04-27T17:42:48.166Z,21.95
2019-04-27T17:48:00.342Z,41.48
2019-04-27T17:53:04.174Z,42.66
2019-04-27T17:58:13.090Z,24.65
2019-04-27T18:03:21.901Z,18.15
2019-04-27T18:08:30.761Z,16.19
2019-04-27T18:13:42.017Z,18.50
2019-04-27T18:18:48.653Z,19.56
2019-04-27T18:23:58.290Z,18.78
2019-04-27T18:29:04.765Z,21.09
2019-04-27T18:34:15.048Z,16.90
2019-04-27T18:39:22.073Z,20.25
2019-04-27T18:44:31.876Z,19.57
2019-04-27T18:49:39.491Z,15.77
2019-04-27T18:54:48.330Z,16.96
2019-04-27T18:59:58.267Z,16.75
2019-04-27T19:05:05.524Z,14.88
2019-04-27T19:10:14.416Z,20.73
2019-04-27T19:15:23.257Z,12.25
2019-04-27T19:20:32.113Z,16.14
2019-04-27T19:25:40.952Z,13.04
2019-04-27T19:30:49.828Z,14.89
2019-04-27T19:35:58.691Z,9.23
2019-04-27T19:41:07.919Z,9.26
2019-04-27T19:46:16.004Z,11.15
2019-04-27T19:51:24.883Z,10.64
2019-04-27T19:56:33.754Z,12.28
2019-04-27T20:01:42.611Z,11.91
2019-04-27T20:06:51.525Z,7.91
2019-04-27T20:12:00.833Z,6.71
2019-04-27T20:17:08.907Z,6.62
2019-04-27T20:22:17.799Z,8.39
2019-04-27T20:27:26.632Z,9.91
2019-04-27T20:32:35.588Z,9.20
2019-04-27T20:37:44.421Z,12.63
2019-04-27T20:42:53.286Z,13.29
2019-04-27T20:48:02.163Z,12.91
2019-04-27T20:53:12.574Z,10.05
2019-04-27T20:58:21.125Z,8.61
2019-04-27T21:03:27.701Z,9.47
2019-04-27T21:08:36.557Z,9.94
2019-04-27T21:13:45.380Z,8.84
2019-04-27T21:18:54.232Z,9.99
2019-04-27T21:24:03.099Z,9.45
2019-04-27T21:29:12.002Z,9.51
2019-04-27T21:34:20.847Z,9.57
2019-04-27T21:39:29.717Z,7.48
2019-04-27T21:44:38.571Z,9.57
2019-04-27T21:49:47.416Z,5.79
2019-04-27T21:54:56.305Z,7.79
2019-04-27T22:00:05.240Z,7.51
2019-04-27T22:05:14.081Z,6.43
2019-04-27T22:10:22.967Z,4.95
2019-04-27T22:15:31.805Z,7.42
2019-04-27T22:20:42.420Z,6.19
2019-04-27T22:25:49.064Z,7.95
2019-04-27T22:30:57.948Z,7.80
2019-04-27T22:36:06.827Z,10.71
2019-04-27T22:41:15.676Z,23.18
2019-04-27T22:46:24.691Z,7.89
2019-04-27T22:51:33.593Z,10.65
2019-04-27T22:56:42.473Z,7.47
2019-04-27T23:01:51.369Z,8.21
2019-04-27T23:07:00.653Z,8.48
2019-04-27T23:12:08.580Z,10.66
2019-04-27T23:17:17.429Z,8.85
2019-04-27T23:22:26.284Z,8.95
2019-04-27T23:27:35.140Z,8.51
2019-04-27T23:32:43.977Z,6.77
2019-04-27T23:37:53.001Z,7.98
2019-04-27T23:43:01.736Z,5.57
2019-04-27T23:48:12.314Z,6.85
2019-04-27T23:53:18.929Z,6.34
2019-04-27T23:58:27.776Z,9.13
